Погода Амангельдинона неделю

Республика Башкортостан, Россия

22 - 28 февраля
  • 22февраля
    Сегодня
    -26°
    -16°
    Практически безоблачно
    ВремяПогодаТемператураВлажностьДавлениеВетер, м/сВероятность осадков
    02:00Ясно и безоблачно-23°C72 %719 мм0.8 м/с2 %
    05:00Ясно и безоблачно-26°C66 %718 мм1.4 м/с2 %
    08:00Ясно и безоблачно-27°C65 %718 мм2.2 м/с2 %
    11:00Ясно и безоблачно-22°C40 %720 мм1.1 м/с2 %
    14:00Практически безоблачно-18°C45 %720 мм1.7 м/с2 %
    17:00Ясно и безоблачно-18°C57 %720 мм1.2 м/с2 %
    20:00Ясно и безоблачно-18°C60 %721 мм1.1 м/с2 %
    23:00Ясно и безоблачно-20°C69 %720 мм1.0 м/с2 %
  • 23февраля
    Пятница
    -20°
    -10°
    Ясно и безоблачно
    ВремяПогодаТемператураВлажностьДавлениеВетер, м/сВероятность осадков
    02:00Ясно и безоблачно-22°C71 %720 мм1.0 м/с2 %
    05:00Ясно и безоблачно-25°C77 %720 мм1.2 м/с2 %
    08:00Ясно и безоблачно-25°C72 %720 мм1.3 м/с2 %
    11:00Небольшая облачность-21°C50 %722 мм0.7 м/с2 %
    14:00Ясно и безоблачно-14°C35 %723 мм0.6 м/с2 %
    17:00Ясно и безоблачно-10°C45 %724 мм1.1 м/с2 %
    20:00Ясно и безоблачно-15°C58 %724 мм1.4 м/с2 %
    23:00Ясно и безоблачно-19°C71 %724 мм2.2 м/с2 %
  • 24февраля
    Суббота
    -19°
    -7°
    Ясно и безоблачно
    ВремяПогодаТемператураВлажностьДавлениеВетер, м/сВероятность осадков
    02:00Ясно и безоблачно-19°C76 %724 мм2.3 м/с2 %
    05:00Ясно и безоблачно-19°C83 %724 мм2.4 м/с2 %
    08:00Ясно и безоблачно-19°C85 %725 мм2.6 м/с2 %
    11:00Ясно и безоблачно-13°C64 %727 мм1.8 м/с2 %
    14:00Ясно и безоблачно-8°C52 %727 мм2.1 м/с2 %
    17:00Ясно и безоблачно-8°C53 %727 мм2.0 м/с2 %
    20:00Ясно и безоблачно-16°C73 %726 мм3.0 м/с2 %
    23:00Ясно и безоблачно-17°C78 %727 мм3.5 м/с2 %
  • 25февраля
    Воскресенье
    -15°
    -4°
    Ясно и безоблачно
    ВремяПогодаТемператураВлажностьДавлениеВетер, м/сВероятность осадков
    02:00Ясно и безоблачно-18°C76 %726 мм3.8 м/с2 %
    05:00Ясно и безоблачно-17°C67 %726 мм3.5 м/с2 %
    08:00Ясно и безоблачно-16°C62 %727 мм3.0 м/с2 %
    11:00Ясно и безоблачно-10°C52 %728 мм2.4 м/с2 %
    14:00Ясно и безоблачно-6°C47 %728 мм2.3 м/с2 %
    17:00Ясно и безоблачно-5°C55 %728 мм2.2 м/с2 %
    20:00Ясно и безоблачно-12°C69 %728 мм2.4 м/с2 %
    23:00Ясно и безоблачно-14°C74 %727 мм3.4 м/с2 %
  • 26февраля
    Понедельник
    -13°
    -1°
    Ясно и безоблачно
    ВремяПогодаТемператураВлажностьДавлениеВетер, м/сВероятность осадков
    02:00Ясно и безоблачно-14°C77 %726 мм3.2 м/с2 %
    05:00Ясно и безоблачно-14°C80 %726 мм3.3 м/с2 %
    08:00Ясно и безоблачно-13°C77 %727 мм3.4 м/с2 %
    11:00Ясно и безоблачно-7°C52 %727 мм1.8 м/с2 %
    14:00Ясно и безоблачно-3°C44 %727 мм1.9 м/с2 %
    17:00Ясно и безоблачно-3°C49 %727 мм1.9 м/с2 %
    20:00Ясно и безоблачно-9°C61 %726 мм2.5 м/с2 %
    23:00Ясно и безоблачно-11°C61 %726 мм3.3 м/с2 %
Мы используем cookies
Соглашаюсь